Schaan, Liechtenstein
Current Conditions -  °F | °C
As of 2:20 PM on Thursday 23 Oct 2014 (Local Time) from LSZR Reporting Station
Broken Clouds Broken Clouds  
Wind Chill: 45°   Ceiling: 4000
Heat Index: 48°   Visibility: 6mi
Dew Point: 37°   Wind: 7mph
Humidity: 66%   Direction: 260°W
Pressure: 30.27"   Gusts: NA
Location:  47.17°N, 9.51°E
Report Text: LSZR 231220Z 26006KT 220V290 9999 BKN040 09/03 Q1025 NOSIG RMK K
Loading
Personal Weather Stations






























Interactive Weather Map
Tropical Storm Tracking
New forecast layout! Learn more

10-Day Weather Forecast

Advertisements
Track Severe Weather on mobile